Pokaż wyniki od 1 do 3 z 3
  1. #1
    Awatar Concorde

    Dołączył
    Feb 2011
    Mieszka w
    Warszawa (EPWA)

    Domyślnie 2013.02.11 Załamanie się lewego podwozia w B733 PIA


    Polecamy

    W skrócie: podczas lądowania w Maskacie załamało się lewe podwozie. Na pokładzie było 107 osób. Nikt nie ucierpiał.
    Accident: PIA B733 at Muscat on Feb 11th 2013, main gear collapse on landing
    By Simon Hradecky, created Monday, Feb 11th 2013 11:51Z, last updated Monday, Feb 11th 2013 15:56Z
    A PIA Pakistan International Airlines Boeing 737-300, registration AP-BEH performing flight PK-259 from Sialkot (Pakistan) to Muscat (Oman) with 107 people on board, landed on Muscat's runway 26L at 13:25L (09:25Z) but suffered the collapse of the left main gear. The aircraft came to stop on the paved surface of the runway at the left hand edge and was disabled. No injuries are being reported, the aircraft received substantial damage to main gear, wing and engine.

    The airport was closed for about 3.5 hours until the aircraft was moved off the runway (runway 08L/26R not yet open).

    Metars:
    OOMS 111050Z 05014KT 8000 FEW025 SCT250 24/18 Q1013 NOSIG
    OOMS 110950Z 05014KT 030V160 9999 SCT025 24/19 Q1014 NOSIG
    OOMS 110850Z 05011KT 020V080 9999 SCT025 24/19 Q1015 NOSIG
    OOMS 110750Z 36004KT 9999 SCT025 24/19 Q1015 NOSIG
    OOMS 110650Z 36005KT 280V030 9999 SCT025 24/19 Q1016 NOSIG
    OOMS 110550Z 27005KT 240V310 9000 BKN020 SCT090 23/18 Q1017 NOSIG
    OOMS 110450Z 24005KT 200V270 7000 SCT030 SCT090 22/18 Q1016 NOSIG
    OOMS 110350Z 23005KT 7000 SCT030 21/17 Q1016 NOSIG

    Relevant NOTAM:
    A0064/13 - RWY 08R/26L IS BLOCKED DUE TO DISABLE AIRCRAFT, UPDATE WILL BE AFTER TWO HOURS STOP. ON 11 FEB BTN 1037/1500, 11 FEB 10:37 2013 UNTIL 11 FEB 15:00 2013. CREATED: 11 FEB 10:36 2013

    The collapsed left main landing gear (Photo: ReNoOo73):


    AP-BEH came to a stop on the runway (Photo: Mumin AL Kaifa):


    Map (Graphics: AVH/Google Earth):

    Accident: PIA B733 at Muscat on Feb 11th 2013, main gear collapse on landing

  2. #2
    Awatar tawal

    Dołączył
    Aug 2008
    Mieszka w
    Elbląg EPEL/Giżycko EPGM

    Domyślnie

    Mógłby mod zmienić "załamanie" na bardziej po polsku. Szczególnie dziwnie wygląda na stronie głównej - nie wiadomo o co chodzi.
    Tadd --- N858 --- BINKA.PESEL,BODLA - BOKSU ---
    Canon 40D + 10" + TV 2x

  3. #3
    Awatar tango fox

    Dołączył
    Jun 2009
    Mieszka w
    EPWA

    Domyślnie


    Polecamy

    Cytat Zamieszczone przez tawal Zobacz posta
    Mógłby mod zmienić "załamanie" na bardziej po polsku. Szczególnie dziwnie wygląda na stronie głównej - nie wiadomo o co chodzi.

    Te nasze media....można się ZAŁAMAĆ
    lataj synku nisko i powoli... jak mówiła mama do młodego pilota

Uprawnienia umieszczania postów

  • Nie możesz zakładać nowych tematów
  • Nie możesz pisać wiadomości
  • Nie możesz dodawać załączników
  • Nie możesz edytować swoich postów
  •